createdAt,value
2018-05-25T00:01:03.443Z,73.30
2018-05-25T00:03:31.183Z,73.50
2018-05-25T00:05:59.684Z,74.00
2018-05-25T00:08:27.436Z,73.90
2018-05-25T00:10:55.137Z,73.90
2018-05-25T00:13:22.870Z,73.80
2018-05-25T00:15:50.597Z,73.80
2018-05-25T00:18:18.332Z,73.90
2018-05-25T00:20:46.076Z,73.60
2018-05-25T00:23:13.776Z,73.20
2018-05-25T00:25:41.525Z,73.40
2018-05-25T00:28:09.244Z,73.40
2018-05-25T00:30:36.956Z,73.40
2018-05-25T00:33:04.688Z,73.40
2018-05-25T00:35:32.451Z,73.60
2018-05-25T00:38:00.181Z,73.90
2018-05-25T00:40:28.697Z,74.10
2018-05-25T00:42:56.391Z,74.10
2018-05-25T00:45:24.100Z,74.20
2018-05-25T00:47:51.844Z,74.30
2018-05-25T00:50:20.343Z,74.20
2018-05-25T00:52:48.060Z,74.20
2018-05-25T00:55:27.580Z,74.10
2018-05-25T00:57:55.284Z,73.90
2018-05-25T01:00:22.993Z,73.70
2018-05-25T01:02:50.955Z,73.50
2018-05-25T01:05:18.671Z,73.50
2018-05-25T01:07:46.388Z,73.20
2018-05-25T01:10:14.128Z,73.30
2018-05-25T01:12:41.905Z,73.30
2018-05-25T01:15:09.643Z,73.50
2018-05-25T01:17:38.135Z,73.80
2018-05-25T01:20:05.888Z,73.80
2018-05-25T01:22:34.357Z,74.50
2018-05-25T01:25:02.097Z,74.40
2018-05-25T01:27:29.861Z,74.60
2018-05-25T01:29:57.580Z,74.90
2018-05-25T01:32:25.331Z,75.20
2018-05-25T01:34:53.813Z,75.70
2018-05-25T01:37:21.564Z,75.70
2018-05-25T01:39:50.209Z,76.20
2018-05-25T01:42:17.992Z,76.20
2018-05-25T01:44:45.699Z,76.30
2018-05-25T01:47:13.430Z,76.20
2018-05-25T01:49:41.144Z,76.20
2018-05-25T01:52:08.848Z,76.20
2018-05-25T01:54:36.584Z,76.00
2018-05-25T01:57:04.320Z,75.90
2018-05-25T01:59:32.084Z,75.70
2018-05-25T02:01:59.834Z,75.50
2018-05-25T02:04:27.549Z,75.30
2018-05-25T02:06:55.256Z,75.00
2018-05-25T02:09:23.756Z,74.90
2018-05-25T02:11:51.576Z,74.90
2018-05-25T02:14:19.282Z,74.50
2018-05-25T02:16:47.010Z,74.30
2018-05-25T02:19:14.720Z,74.20
2018-05-25T02:21:42.430Z,74.10
2018-05-25T02:24:10.161Z,74.20
2018-05-25T02:26:37.876Z,74.10
2018-05-25T02:29:06.352Z,74.30
2018-05-25T02:31:34.844Z,74.40
2018-05-25T02:34:03.375Z,74.60
2018-05-25T02:36:31.132Z,74.50
2018-05-25T02:38:58.875Z,74.60
2018-05-25T02:41:26.588Z,74.70
2018-05-25T02:43:54.342Z,74.80
2018-05-25T02:46:22.129Z,74.80
2018-05-25T02:48:49.852Z,74.90
2018-05-25T02:51:17.588Z,75.00
2018-05-25T02:53:45.312Z,74.90
2018-05-25T02:56:13.041Z,75.00
2018-05-25T02:58:41.172Z,75.30
2018-05-25T03:01:08.892Z,75.00
2018-05-25T03:03:36.588Z,74.90
2018-05-25T03:06:05.071Z,74.50
2018-05-25T03:08:33.564Z,74.60
2018-05-25T03:11:02.069Z,74.60
2018-05-25T03:13:29.834Z,74.40
2018-05-25T03:15:57.560Z,74.00
2018-05-25T03:18:26.036Z,74.20
2018-05-25T03:20:54.496Z,74.20
2018-05-25T03:23:22.244Z,74.00
2018-05-25T03:25:50.047Z,74.20
2018-05-25T03:28:17.799Z,74.30
2018-05-25T03:30:45.569Z,74.30
2018-05-25T03:33:14.031Z,73.90
2018-05-25T03:35:41.771Z,73.90
2018-05-25T03:38:09.510Z,73.50
2018-05-25T03:40:37.210Z,73.70
2018-05-25T03:43:05.004Z,74.20
2018-05-25T03:45:33.550Z,74.90
2018-05-25T03:48:01.281Z,74.90
2018-05-25T03:50:28.992Z,75.20
2018-05-25T03:52:56.760Z,76.90
2018-05-25T03:55:24.488Z,78.60
2018-05-25T03:57:52.200Z,79.70
2018-05-25T04:00:32.481Z,82.30
2018-05-25T04:03:00.232Z,82.30
2018-05-25T04:05:28.766Z,83.20
2018-05-25T04:07:56.504Z,83.10
2018-05-25T04:10:24.211Z,83.60
2018-05-25T04:12:52.019Z,85.20
2018-05-25T04:15:19.751Z,86.60
2018-05-25T04:17:48.221Z,87.90
2018-05-25T04:20:15.956Z,87.90
2018-05-25T04:22:43.696Z,88.50
2018-05-25T04:25:11.468Z,88.80
2018-05-25T04:27:39.170Z,89.20
2018-05-25T04:30:06.902Z,89.60
2018-05-25T04:32:34.605Z,90.00
2018-05-25T04:35:02.321Z,90.10
2018-05-25T04:37:30.092Z,90.20
2018-05-25T04:39:57.800Z,90.40
2018-05-25T04:42:25.549Z,90.50
2018-05-25T04:44:53.279Z,90.60
2018-05-25T04:47:21.004Z,90.70
2018-05-25T04:49:49.526Z,91.00
2018-05-25T04:52:17.256Z,90.90
2018-05-25T04:54:45.016Z,90.90
2018-05-25T04:57:13.484Z,91.10
2018-05-25T04:59:41.989Z,91.20
2018-05-25T05:02:09.699Z,91.20
2018-05-25T05:04:37.397Z,91.20
2018-05-25T05:07:05.905Z,91.20
2018-05-25T05:09:33.612Z,91.20
2018-05-25T05:12:01.324Z,91.40
2018-05-25T05:14:29.049Z,91.70
2018-05-25T05:16:56.752Z,91.80
2018-05-25T05:19:24.456Z,91.70
2018-05-25T05:21:52.188Z,91.70
2018-05-25T05:24:19.909Z,91.80
2018-05-25T05:26:48.381Z,92.00
2018-05-25T05:29:16.160Z,92.00
2018-05-25T05:31:44.629Z,91.80
2018-05-25T05:34:12.333Z,91.80
2018-05-25T05:36:40.092Z,91.70
2018-05-25T05:39:07.800Z,91.60
2018-05-25T05:41:35.517Z,91.50
2018-05-25T05:44:03.255Z,91.30
2018-05-25T05:46:32.066Z,91.80
2018-05-25T05:48:59.809Z,91.80
2018-05-25T05:51:28.312Z,92.40
2018-05-25T05:53:56.022Z,92.30
2018-05-25T05:56:23.733Z,92.60
2018-05-25T05:58:51.505Z,92.60
2018-05-25T06:01:19.225Z,92.70
2018-05-25T06:03:46.955Z,92.80
2018-05-25T06:06:14.687Z,92.80
2018-05-25T06:08:43.220Z,92.60
2018-05-25T06:11:11.424Z,92.70
2018-05-25T06:13:39.931Z,92.60
2018-05-25T06:16:07.639Z,92.60
2018-05-25T06:18:35.388Z,92.50
2018-05-25T06:21:03.137Z,92.40
2018-05-25T06:23:30.893Z,92.20
2018-05-25T06:25:58.653Z,91.70
2018-05-25T06:28:26.379Z,91.20
2018-05-25T06:30:54.857Z,93.50
2018-05-25T06:33:22.598Z,93.20
2018-05-25T06:35:50.372Z,93.80
2018-05-25T06:38:18.160Z,94.40
2018-05-25T06:40:46.656Z,94.40
2018-05-25T06:43:14.359Z,94.40
2018-05-25T06:45:42.088Z,94.50
2018-05-25T06:48:09.873Z,94.40
2018-05-25T06:50:37.656Z,94.40
2018-05-25T06:53:05.403Z,94.20
2018-05-25T06:55:33.176Z,94.20
2018-05-25T06:58:00.945Z,94.30
2018-05-25T07:00:28.673Z,94.30
2018-05-25T07:02:56.408Z,93.50
2018-05-25T07:05:24.900Z,92.80
2018-05-25T07:07:53.404Z,92.80
2018-05-25T07:10:21.171Z,92.80
2018-05-25T07:12:48.890Z,92.50
2018-05-25T07:15:17.408Z,92.50
2018-05-25T07:17:45.136Z,92.50
2018-05-25T07:20:12.868Z,92.70
2018-05-25T07:22:40.669Z,92.70
2018-05-25T07:25:09.165Z,92.50
2018-05-25T07:27:37.629Z,92.70
2018-05-25T07:30:05.420Z,92.70
2018-05-25T07:32:33.124Z,92.70
2018-05-25T07:35:00.853Z,92.50
2018-05-25T07:37:28.592Z,92.60
2018-05-25T07:39:57.060Z,92.50
2018-05-25T07:42:24.767Z,92.50
2018-05-25T07:44:52.503Z,92.40
2018-05-25T07:47:20.976Z,91.70
2018-05-25T07:49:49.516Z,91.70
2018-05-25T07:52:17.248Z,91.70
2018-05-25T07:54:44.986Z,91.70
2018-05-25T07:57:13.460Z,90.70
2018-05-25T07:59:41.952Z,90.50
2018-05-25T08:02:10.449Z,90.50
2018-05-25T08:04:38.177Z,90.50
2018-05-25T08:07:05.922Z,90.20
2018-05-25T08:09:33.657Z,90.90
2018-05-25T08:12:01.399Z,91.30
2018-05-25T08:14:29.173Z,91.80
2018-05-25T08:16:57.150Z,91.30
2018-05-25T08:19:24.901Z,91.40
2018-05-25T08:21:52.657Z,90.60
2018-05-25T08:24:21.224Z,90.20
2018-05-25T08:26:49.770Z,91.40
2018-05-25T08:29:17.504Z,91.30
2018-05-25T08:31:45.229Z,90.60
2018-05-25T08:34:13.733Z,90.40
2018-05-25T08:36:41.444Z,90.30
2018-05-25T08:39:09.195Z,90.20
2018-05-25T08:41:36.941Z,89.40
2018-05-25T08:44:04.760Z,90.50
2018-05-25T08:46:33.250Z,90.50
2018-05-25T08:49:02.663Z,90.10
2018-05-25T08:51:31.164Z,88.70
2018-05-25T08:53:58.922Z,88.70
2018-05-25T08:56:26.672Z,86.70
2018-05-25T08:58:54.412Z,88.10
2018-05-25T09:01:22.155Z,86.10
2018-05-25T09:03:49.877Z,86.50
2018-05-25T09:06:17.644Z,85.40
2018-05-25T09:08:45.551Z,86.10
2018-05-25T09:11:13.280Z,86.50
2018-05-25T09:13:41.044Z,86.90
2018-05-25T09:16:08.769Z,85.90
2018-05-25T09:18:37.272Z,81.90
2018-05-25T09:21:05.217Z,81.90
2018-05-25T09:23:33.724Z,82.20
2018-05-25T09:26:01.512Z,82.10
2018-05-25T09:28:29.281Z,80.50
2018-05-25T09:30:57.055Z,80.50
2018-05-25T09:33:24.763Z,80.70
2018-05-25T09:35:53.397Z,79.10
2018-05-25T09:38:21.113Z,79.00
2018-05-25T09:40:49.645Z,77.50
2018-05-25T09:43:17.349Z,77.40
2018-05-25T09:45:45.848Z,79.10
2018-05-25T09:48:13.676Z,79.10
2018-05-25T09:50:41.495Z,79.30
2018-05-25T09:53:09.276Z,78.30
2018-05-25T09:55:37.016Z,77.90
2018-05-25T09:58:04.744Z,78.50
2018-05-25T10:00:32.469Z,79.00
2018-05-25T10:03:00.216Z,78.80
2018-05-25T10:05:27.977Z,77.60
2018-05-25T10:07:55.701Z,77.80
2018-05-25T10:10:24.216Z,77.10
2018-05-25T10:12:51.928Z,76.70
2018-05-25T10:15:19.660Z,76.70
2018-05-25T10:17:47.408Z,76.20
2018-05-25T10:20:15.184Z,76.00
2018-05-25T10:22:42.922Z,76.50
2018-05-25T10:25:10.674Z,75.00
2018-05-25T10:27:39.278Z,74.60
2018-05-25T10:30:07.093Z,74.60
2018-05-25T10:32:34.830Z,73.70
2018-05-25T10:35:02.603Z,75.10
2018-05-25T10:37:30.315Z,74.30
2018-05-25T10:39:58.800Z,70.40
2018-05-25T10:42:27.289Z,69.70
2018-05-25T10:44:55.096Z,69.70
2018-05-25T10:47:22.828Z,68.20
2018-05-25T10:49:50.588Z,68.80
2018-05-25T10:52:18.321Z,67.00
2018-05-25T10:54:46.797Z,67.60
2018-05-25T10:57:14.492Z,67.60
2018-05-25T10:59:42.219Z,64.50
2018-05-25T11:02:10.015Z,63.90
2018-05-25T11:04:37.709Z,63.70
2018-05-25T11:07:05.436Z,60.70
2018-05-25T11:09:34.158Z,58.90
2018-05-25T11:12:01.880Z,58.10
2018-05-25T11:14:30.460Z,56.70
2018-05-25T11:16:58.991Z,56.00
2018-05-25T11:19:26.699Z,55.90
2018-05-25T11:21:55.263Z,55.60
2018-05-25T11:24:23.012Z,55.60
2018-05-25T11:26:51.321Z,54.50
2018-05-25T11:29:20.089Z,53.80
2018-05-25T11:31:47.801Z,53.70
2018-05-25T11:34:15.521Z,52.60
2018-05-25T11:36:43.270Z,53.70
2018-05-25T11:39:11.783Z,53.60
2018-05-25T11:41:40.332Z,53.00
2018-05-25T11:44:08.124Z,52.90
2018-05-25T11:46:36.599Z,52.90
2018-05-25T11:49:04.444Z,52.90
2018-05-25T11:51:32.180Z,53.20
2018-05-25T11:53:59.946Z,52.30
2018-05-25T11:56:27.696Z,53.50
2018-05-25T11:58:55.585Z,51.40
2018-05-25T12:01:24.417Z,53.10
2018-05-25T12:03:52.331Z,52.00
2018-05-25T12:06:20.074Z,49.70
2018-05-25T12:08:47.828Z,50.00
2018-05-25T12:11:15.621Z,48.50
2018-05-25T12:13:43.324Z,48.20
2018-05-25T12:16:11.072Z,47.50
2018-05-25T12:18:38.893Z,47.20
2018-05-25T12:21:06.610Z,48.30
2018-05-25T12:23:34.346Z,47.40
2018-05-25T12:26:02.210Z,46.30
2018-05-25T12:28:30.040Z,46.50
2018-05-25T12:30:58.538Z,47.30
2018-05-25T12:33:26.292Z,47.30
2018-05-25T12:35:54.269Z,45.70
2018-05-25T12:38:22.142Z,45.10
2018-05-25T12:40:49.860Z,46.00
2018-05-25T12:43:17.624Z,46.20
2018-05-25T12:45:45.373Z,46.80
2018-05-25T12:48:16.706Z,46.80
2018-05-25T12:50:44.485Z,46.70
2018-05-25T12:53:12.189Z,47.10
2018-05-25T12:55:40.013Z,47.60
2018-05-25T12:58:07.777Z,47.30
2018-05-25T13:00:35.536Z,48.00
2018-05-25T13:03:03.266Z,48.70
2018-05-25T13:05:31.004Z,50.40
2018-05-25T13:07:59.520Z,50.90
2018-05-25T13:10:27.260Z,50.90
2018-05-25T13:12:54.984Z,49.80
2018-05-25T13:15:22.743Z,48.50
2018-05-25T13:17:50.540Z,50.60
2018-05-25T13:20:18.270Z,49.10
2018-05-25T13:22:46.850Z,49.50
2018-05-25T13:25:14.594Z,49.40
2018-05-25T13:27:42.308Z,49.00
2018-05-25T13:30:10.880Z,47.50
2018-05-25T13:32:39.388Z,48.80
2018-05-25T13:35:07.090Z,48.60
2018-05-25T13:37:34.992Z,49.00
2018-05-25T13:40:03.540Z,49.30
2018-05-25T13:42:31.684Z,49.20
2018-05-25T13:44:59.654Z,49.50
2018-05-25T13:47:27.358Z,50.60
2018-05-25T13:49:55.907Z,50.80
2018-05-25T13:52:24.412Z,50.10
2018-05-25T13:54:52.128Z,50.10
2018-05-25T13:57:19.843Z,48.40
2018-05-25T13:59:47.608Z,48.20
2018-05-25T14:02:15.356Z,50.00
2018-05-25T14:04:43.304Z,49.30
2018-05-25T14:07:11.027Z,50.70
2018-05-25T14:09:39.490Z,49.00
2018-05-25T14:12:07.229Z,49.00
2018-05-25T14:14:36.365Z,50.20
2018-05-25T14:17:04.878Z,51.40
2018-05-25T14:19:32.668Z,51.30
2018-05-25T14:22:00.367Z,51.60
2018-05-25T14:24:28.111Z,52.10
2018-05-25T14:26:55.862Z,51.10
2018-05-25T14:29:23.574Z,50.50
2018-05-25T14:31:52.048Z,52.80
2018-05-25T14:34:20.552Z,53.00
2018-05-25T14:36:48.442Z,52.90
2018-05-25T14:39:16.940Z,52.40
2018-05-25T14:41:44.680Z,52.30
2018-05-25T14:44:12.392Z,52.00
2018-05-25T14:46:41.104Z,49.90
2018-05-25T14:49:09.660Z,51.50
2018-05-25T14:51:37.369Z,51.50
2018-05-25T14:54:05.109Z,50.60
2018-05-25T14:56:33.603Z,50.90
2018-05-25T14:59:01.355Z,50.90
2018-05-25T15:01:29.728Z,51.70
2018-05-25T15:03:58.228Z,50.50
2018-05-25T15:06:26.108Z,50.30
2018-05-25T15:08:54.188Z,51.30
2018-05-25T15:11:22.139Z,50.60
2018-05-25T15:13:49.872Z,49.90
2018-05-25T15:16:18.515Z,49.70
2018-05-25T15:18:46.212Z,49.60
2018-05-25T15:21:14.004Z,48.20
2018-05-25T15:23:42.547Z,48.40
2018-05-25T15:26:10.320Z,48.40
2018-05-25T15:28:38.158Z,47.30
2018-05-25T15:31:06.098Z,47.40
2018-05-25T15:33:33.616Z,46.30
2018-05-25T15:36:01.614Z,48.20
2018-05-25T15:38:29.413Z,48.00
2018-05-25T15:40:57.173Z,46.80
2018-05-25T15:43:24.888Z,47.50
2018-05-25T15:45:53.358Z,46.70
2018-05-25T15:48:21.092Z,46.60
2018-05-25T15:50:49.012Z,46.60
2018-05-25T15:53:17.485Z,47.10
2018-05-25T15:55:45.952Z,47.90
2018-05-25T15:58:14.497Z,45.80
2018-05-25T16:00:42.252Z,45.80
2018-05-25T16:03:09.968Z,47.50
2018-05-25T16:05:38.500Z,48.20
2018-05-25T16:08:06.260Z,48.20
2018-05-25T16:10:34.068Z,48.20
2018-05-25T16:13:02.910Z,47.50
2018-05-25T16:15:30.669Z,47.30
2018-05-25T16:17:58.461Z,47.50
2018-05-25T16:20:26.205Z,47.90
2018-05-25T16:22:53.904Z,47.40
2018-05-25T16:25:21.625Z,46.70
2018-05-25T16:27:49.633Z,48.40
2018-05-25T16:30:17.342Z,49.20
2018-05-25T16:32:45.067Z,49.60
2018-05-25T16:35:12.798Z,50.00
2018-05-25T16:37:40.548Z,50.90
2018-05-25T16:40:08.357Z,51.40
2018-05-25T16:42:36.093Z,51.60
2018-05-25T16:45:04.109Z,51.60
2018-05-25T16:47:32.573Z,52.00
2018-05-25T16:50:00.308Z,52.00
2018-05-25T16:52:28.074Z,52.90
2018-05-25T16:54:55.799Z,53.20
2018-05-25T16:57:23.539Z,53.40
2018-05-25T16:59:52.059Z,54.40
2018-05-25T17:02:20.633Z,54.60
2018-05-25T17:04:48.485Z,54.60
2018-05-25T17:07:16.234Z,54.40
2018-05-25T17:09:43.984Z,54.90
2018-05-25T17:12:11.722Z,55.00
2018-05-25T17:14:39.428Z,55.10
2018-05-25T17:17:07.934Z,54.90
2018-05-25T17:19:35.673Z,54.90
2018-05-25T17:22:04.148Z,54.60
2018-05-25T17:24:32.679Z,55.00
2018-05-25T17:27:00.385Z,55.00
2018-05-25T17:29:28.157Z,55.80
2018-05-25T17:31:56.668Z,56.70
2018-05-25T17:34:24.363Z,56.70
2018-05-25T17:36:52.069Z,56.70
2018-05-25T17:39:20.559Z,57.10
2018-05-25T17:41:49.079Z,57.20
2018-05-25T17:44:16.788Z,57.20
2018-05-25T17:46:45.316Z,56.70
2018-05-25T17:49:13.404Z,56.60
2018-05-25T17:51:41.100Z,56.70
2018-05-25T17:54:09.600Z,56.60
2018-05-25T17:56:37.333Z,56.60
2018-05-25T17:59:05.056Z,56.70
2018-05-25T18:01:32.791Z,56.40
2018-05-25T18:04:00.533Z,56.10
2018-05-25T18:06:29.014Z,56.10
2018-05-25T18:08:57.539Z,56.10
2018-05-25T18:11:25.240Z,56.10
2018-05-25T18:13:52.960Z,56.50
2018-05-25T18:16:20.790Z,56.70
2018-05-25T18:18:49.292Z,57.00
2018-05-25T18:21:17.006Z,57.00
2018-05-25T18:23:44.811Z,57.00
2018-05-25T18:26:13.312Z,56.60
2018-05-25T18:28:41.024Z,56.60
2018-05-25T18:31:08.801Z,55.60
2018-05-25T18:33:36.500Z,55.50
2018-05-25T18:36:04.277Z,55.80
2018-05-25T18:38:32.144Z,55.50
2018-05-25T18:40:59.866Z,55.50
2018-05-25T18:43:28.352Z,54.50
2018-05-25T18:45:56.857Z,55.40
2018-05-25T18:48:24.939Z,55.40
2018-05-25T18:50:53.437Z,55.40
2018-05-25T18:53:21.185Z,55.40
2018-05-25T18:55:48.936Z,55.60
2018-05-25T18:58:16.701Z,56.30
2018-05-25T19:00:44.442Z,56.60
2018-05-25T19:03:12.932Z,56.10
2018-05-25T19:05:40.668Z,56.10
2018-05-25T19:08:08.436Z,56.90
2018-05-25T19:10:37.049Z,58.70
2018-05-25T19:13:04.768Z,58.70
2018-05-25T19:15:32.621Z,58.70
2018-05-25T19:18:00.372Z,59.10
2018-05-25T19:20:28.203Z,59.40
2018-05-25T19:22:58.063Z,59.50
2018-05-25T19:25:25.861Z,60.00
2018-05-25T19:27:55.241Z,60.00
2018-05-25T19:30:22.961Z,60.00
2018-05-25T19:32:51.445Z,59.70
2018-05-25T19:35:19.177Z,59.70
2018-05-25T19:37:47.713Z,59.20
2018-05-25T19:40:15.438Z,59.20
2018-05-25T19:42:43.197Z,59.30
2018-05-25T19:45:10.913Z,58.80
2018-05-25T19:47:38.636Z,58.70
2018-05-25T19:50:06.423Z,59.00
2018-05-25T19:52:35.084Z,59.00
2018-05-25T19:55:02.832Z,58.90
2018-05-25T19:57:31.341Z,59.00
2018-05-25T19:59:59.048Z,59.00
2018-05-25T20:02:26.750Z,58.70
2018-05-25T20:04:54.473Z,58.30
2018-05-25T20:07:22.184Z,58.50
2018-05-25T20:09:49.883Z,59.00
2018-05-25T20:12:17.921Z,59.70
2018-05-25T20:14:46.403Z,60.30
2018-05-25T20:17:16.618Z,60.60
2018-05-25T20:19:45.511Z,61.00
2018-05-25T20:22:16.810Z,61.30
2018-05-25T20:24:46.602Z,61.20
2018-05-25T20:27:16.767Z,61.10
2018-05-25T20:29:45.081Z,60.50
2018-05-25T20:32:14.488Z,60.00
2018-05-25T20:34:43.966Z,60.70
2018-05-25T20:37:12.704Z,60.70
2018-05-25T20:39:41.236Z,61.70
2018-05-25T20:42:08.976Z,61.60
2018-05-25T20:44:38.212Z,61.80
2018-05-25T20:47:06.000Z,61.80
2018-05-25T20:49:33.820Z,61.00
2018-05-25T20:52:01.533Z,60.50
2018-05-25T20:54:29.309Z,59.30
2018-05-25T20:56:57.060Z,58.90
2018-05-25T20:59:26.987Z,58.80
2018-05-25T21:01:54.748Z,59.40
2018-05-25T21:04:22.520Z,59.80
2018-05-25T21:06:52.829Z,60.20
2018-05-25T21:09:20.725Z,60.40
2018-05-25T21:11:49.201Z,60.90
2018-05-25T21:14:17.724Z,61.10
2018-05-25T21:16:46.042Z,61.10
2018-05-25T21:19:16.321Z,61.40
2018-05-25T21:21:44.064Z,61.80
2018-05-25T21:24:12.045Z,61.30
2018-05-25T21:26:42.640Z,60.80
2018-05-25T21:29:11.168Z,60.60
2018-05-25T21:31:38.920Z,60.50
2018-05-25T21:34:06.950Z,60.10
2018-05-25T21:36:35.331Z,59.60
2018-05-25T21:39:05.920Z,59.30
2018-05-25T21:41:33.684Z,59.60
2018-05-25T21:44:01.461Z,58.90
2018-05-25T21:46:29.203Z,59.60
2018-05-25T21:48:56.917Z,60.10
2018-05-25T21:51:25.092Z,59.60
2018-05-25T21:53:52.836Z,58.00
2018-05-25T21:56:20.585Z,58.30
2018-05-25T21:58:48.331Z,58.70
2018-05-25T22:01:16.046Z,58.30
2018-05-25T22:03:43.772Z,58.90
2018-05-25T22:06:11.494Z,59.20
2018-05-25T22:08:39.965Z,60.20
2018-05-25T22:11:08.473Z,59.70
2018-05-25T22:13:36.228Z,59.70
2018-05-25T22:16:04.030Z,59.80
2018-05-25T22:18:31.779Z,59.10
2018-05-25T22:20:59.491Z,59.50
2018-05-25T22:23:27.203Z,60.20
2018-05-25T22:25:54.982Z,59.70
2018-05-25T22:28:22.719Z,59.20
2018-05-25T22:30:50.461Z,59.20
2018-05-25T22:33:18.978Z,59.60
2018-05-25T22:35:46.683Z,59.60
2018-05-25T22:38:14.407Z,60.20
2018-05-25T22:40:42.208Z,59.90
2018-05-25T22:43:21.908Z,60.10
2018-05-25T22:46:01.623Z,60.30
2018-05-25T22:48:42.095Z,62.80
2018-05-25T22:51:21.778Z,62.80
2018-05-25T22:53:54.668Z,62.10
2018-05-25T22:56:22.529Z,62.30
2018-05-25T22:58:50.271Z,62.70
2018-05-25T23:01:18.101Z,62.10
2018-05-25T23:03:47.442Z,62.20
2018-05-25T23:06:15.249Z,62.10
2018-05-25T23:08:43.012Z,61.60
2018-05-25T23:11:10.784Z,62.00
2018-05-25T23:13:38.579Z,63.00
2018-05-25T23:16:06.450Z,62.70
2018-05-25T23:18:34.258Z,62.70
2018-05-25T23:21:02.039Z,63.10
2018-05-25T23:23:29.828Z,63.40
2018-05-25T23:25:57.661Z,63.50
2018-05-25T23:28:25.439Z,63.80
2018-05-25T23:30:53.210Z,63.90
2018-05-25T23:33:21.727Z,64.40
2018-05-25T23:35:49.428Z,64.40
2018-05-25T23:38:17.218Z,64.50
2018-05-25T23:40:45.751Z,64.90
2018-05-25T23:43:13.468Z,64.70
2018-05-25T23:45:41.948Z,64.70
2018-05-25T23:48:10.523Z,65.00
2018-05-25T23:50:39.046Z,65.10
2018-05-25T23:53:06.816Z,65.10
2018-05-25T23:55:34.549Z,65.30
2018-05-25T23:58:03.012Z,65.50
